Time;durP1;ratioP1;P1;durP2;ratioP2;P2;SDS_P1;SDS_P2;PMS_P1;PMS_P2;Temp;Humidity;BMP_temperature;BMP_pressure;BME280_temperature;BME280_humidity;BME280_pressure;Samples;Min_cycle;Max_cycle;Signal;HPM_P1;HPM_P2
2022/04/07 00:00:53;;;;;;;9.30;8.50;;;;;;;9.84;83.28;99078.06;5022437;28;20178;-76
2022/04/07 00:03:18;;;;;;;9.07;8.20;;;;;;;9.85;82.81;99084.88;5016802;28;20229;-76
2022/04/07 00:05:44;;;;;;;8.43;7.63;;;;;;;9.86;83.41;99078.88;4982907;28;20258;-76
2022/04/07 00:08:10;;;;;;;10.07;8.07;;;;;;;9.86;82.86;99066.09;4980070;28;20613;-76
2022/04/07 00:10:36;;;;;;;9.23;8.33;;;;;;;9.92;82.96;99067.78;4997208;28;20230;-76
2022/04/07 00:13:02;;;;;;;8.30;7.50;;;;;;;9.93;82.42;99065.22;4996471;28;20638;-76
2022/04/07 00:15:27;;;;;;;8.40;7.60;;;;;;;9.93;82.25;99059.25;5002883;28;20224;-76
2022/04/07 00:17:52;;;;;;;8.07;7.30;;;;;;;9.95;81.61;99045.59;5014334;28;20560;-76
2022/04/07 00:20:18;;;;;;;8.43;7.63;;;;;;;9.95;81.50;99047.31;5033812;28;20579;-78
2022/04/07 00:22:44;;;;;;;9.27;8.10;;;;;;;9.92;81.78;99040.53;5000117;28;20214;-76
2022/04/07 00:25:10;;;;;;;8.73;7.93;;;;;;;9.89;82.36;99032.88;5017315;28;20252;-78
2022/04/07 00:27:35;;;;;;;10.17;9.17;;;;;;;9.93;81.82;99038.78;5007554;28;20178;-76
2022/04/07 00:30:03;;;;;;;9.50;8.57;;;;;;;9.89;81.88;99037.97;5007602;28;20208;-77
2022/04/07 00:32:28;;;;;;;9.80;8.80;;;;;;;9.84;82.65;99026.94;5024965;28;20193;-78
2022/04/07 00:34:54;;;;;;;9.73;8.87;;;;;;;9.82;81.88;99020.97;5021559;28;20204;-78
2022/04/07 00:37:24;;;;;;;9.47;8.60;;;;;;;9.85;82.84;99018.41;5001676;28;20217;-78
2022/04/07 00:39:50;;;;;;;10.20;9.20;;;;;;;9.89;82.18;99022.63;5000584;28;20191;-76
2022/04/07 00:42:16;;;;;;;10.03;9.03;;;;;;;9.95;82.22;99024.31;5018638;28;20202;-78
2022/04/07 00:44:41;;;;;;;10.13;9.13;;;;;;;9.97;81.87;99026.00;5013509;28;20794;-78
2022/04/07 00:47:07;;;;;;;10.40;9.40;;;;;;;9.97;82.11;99007.22;5002601;28;20190;-76
2022/04/07 00:49:33;;;;;;;10.13;9.13;;;;;;;9.97;82.27;99008.09;5000457;28;20206;-77
2022/04/07 00:51:59;;;;;;;10.47;9.03;;;;;;;10.02;81.47;98993.56;5006978;28;20187;-76
2022/04/07 00:54:25;;;;;;;10.07;9.17;;;;;;;9.97;81.78;98990.19;5007607;28;20214;-78
2022/04/07 00:56:53;;;;;;;10.00;9.00;;;;;;;9.96;82.49;98983.38;5014447;28;20218;-76
2022/04/07 00:59:18;;;;;;;9.53;8.47;;;;;;;9.99;81.54;98973.13;5003286;28;20749;-76
2022/04/07 01:01:45;;;;;;;10.40;9.30;;;;;;;9.98;81.87;98966.31;5018906;28;20214;-77
2022/04/07 01:04:10;;;;;;;10.10;8.63;;;;;;;9.98;81.42;98970.56;5003665;28;20218;-76
2022/04/07 01:06:35;;;;;;;9.23;8.23;;;;;;;9.95;82.05;98968.91;5036676;28;20470;-76
2022/04/07 01:09:01;;;;;;;9.97;7.80;;;;;;;9.95;82.05;98968.91;5016715;28;20186;-76
2022/04/07 01:11:29;;;;;;;9.53;8.63;;;;;;;9.97;81.69;98962.06;4999178;28;20186;-76
2022/04/07 01:13:54;;;;;;;9.60;8.30;;;;;;;9.97;81.82;98962.06;5034716;28;20698;-76
2022/04/07 01:16:25;;;;;;;9.57;8.57;;;;;;;10.02;81.41;98956.91;5002643;28;20194;-76
2022/04/07 01:18:51;;;;;;;10.97;8.33;;;;;;;9.98;81.99;98956.09;5003934;28;20189;-76
2022/04/07 01:21:17;;;;;;;9.40;8.43;;;;;;;10.05;81.72;98950.09;5003176;28;20196;-76
2022/04/07 01:24:07;;;;;;;8.93;7.90;;;;;;;9.99;81.93;98939.88;5018987;28;20219;-76
2022/04/07 01:26:44;;;;;;;9.03;8.13;;;;;;;9.92;82.06;98940.81;5001893;28;20199;-77
2022/04/07 01:29:11;;;;;;;10.50;7.50;;;;;;;9.89;81.84;98925.50;5008729;28;20278;-76
2022/04/07 01:31:38;;;;;;;8.30;7.50;;;;;;;9.98;81.24;98930.53;4994822;28;20202;-77
2022/04/07 01:34:06;;;;;;;10.20;8.33;;;;;;;9.82;81.61;98928.13;5001473;28;20294;-76
2022/04/07 01:36:36;;;;;;;8.97;7.93;;;;;;;9.84;81.40;98913.59;4996322;28;20191;-76
2022/04/07 01:39:03;;;;;;;8.83;7.70;;;;;;;9.81;81.57;98914.50;5029757;28;20221;-76
2022/04/07 01:41:28;;;;;;;9.13;8.23;;;;;;;9.82;81.74;98907.69;5005047;28;20242;-76
2022/04/07 01:43:56;;;;;;;9.10;7.63;;;;;;;9.82;81.49;98900.84;4999755;28;20210;-76
2022/04/07 01:46:22;;;;;;;7.60;6.90;;;;;;;9.78;81.70;98896.66;5015731;28;20198;-76
2022/04/07 01:48:49;;;;;;;8.40;7.43;;;;;;;9.84;80.97;98903.38;5036593;28;20281;-76
2022/04/07 01:51:14;;;;;;;8.00;7.23;;;;;;;9.86;81.39;98897.41;5002641;28;20567;-76
2022/04/07 01:53:41;;;;;;;7.80;7.03;;;;;;;9.85;81.41;98887.19;5010434;28;20416;-76
2022/04/07 01:56:07;;;;;;;8.83;8.00;;;;;;;9.81;81.61;98890.66;5034864;28;20189;-76
2022/04/07 01:58:34;;;;;;;8.67;7.73;;;;;;;9.84;81.33;98886.34;5018727;28;20201;-76
2022/04/07 02:01:00;;;;;;;8.60;7.30;;;;;;;9.80;82.01;98877.00;5016729;28;20197;-77
2022/04/07 02:03:25;;;;;;;10.73;7.20;;;;;;;9.80;81.97;98871.91;5007299;28;20219;-76
2022/04/07 02:05:50;;;;;;;8.23;7.40;;;;;;;9.83;81.92;98865.91;5010017;28;20285;-76
2022/04/07 02:08:15;;;;;;;9.63;7.77;;;;;;;9.83;82.07;98856.56;4998607;28;20198;-76
2022/04/07 02:10:41;;;;;;;11.40;8.27;;;;;;;9.87;81.75;98857.34;5011382;28;20194;-77
2022/04/07 02:13:06;;;;;;;9.33;7.93;;;;;;;9.89;81.56;98865.84;5001702;28;20202;-76
2022/04/07 02:15:32;;;;;;;8.60;7.80;;;;;;;9.89;81.90;98853.06;4992154;28;20209;-76
2022/04/07 02:17:57;;;;;;;9.60;8.53;;;;;;;9.85;81.85;98842.03;4998129;28;20233;-76
2022/04/07 02:20:23;;;;;;;9.90;8.03;;;;;;;9.94;81.64;98853.84;4982033;28;20223;-76
2022/04/07 02:22:48;;;;;;;9.43;8.33;;;;;;;9.91;81.26;98829.19;5000179;28;20261;-76
2022/04/07 02:25:14;;;;;;;9.13;7.97;;;;;;;9.97;80.87;98830.84;5010441;28;20207;-76
2022/04/07 02:27:41;;;;;;;10.53;8.73;;;;;;;9.94;81.42;98826.59;4998390;28;20222;-77
2022/04/07 02:30:09;;;;;;;8.90;8.00;;;;;;;9.90;81.90;98817.25;5015054;28;20226;-76
2022/04/07 02:32:35;;;;;;;9.93;8.93;;;;;;;9.88;81.86;98823.25;4997995;28;20215;-77
2022/04/07 02:35:00;;;;;;;10.60;9.60;;;;;;;9.95;81.14;98817.22;4997096;28;20189;-76
2022/04/07 02:37:26;;;;;;;9.83;8.97;;;;;;;9.98;81.47;98812.06;5004674;28;20543;-76
2022/04/07 02:39:55;;;;;;;12.10;10.20;;;;;;;9.89;82.22;98815.59;5014369;28;20183;-76
2022/04/07 02:42:20;;;;;;;11.60;9.27;;;;;;;9.91;82.10;98813.00;4978174;28;20211;-76
2022/04/07 02:44:46;;;;;;;12.00;10.87;;;;;;;9.83;83.03;98813.09;4985669;28;20209;-77
2022/04/07 02:47:11;;;;;;;11.63;10.27;;;;;;;9.85;83.13;98790.91;5000341;28;20191;-76
2022/04/07 02:49:40;;;;;;;12.17;10.97;;;;;;;9.83;83.06;98796.91;4992230;28;20282;-76
2022/04/07 02:52:10;;;;;;;11.70;10.53;;;;;;;9.87;83.25;98801.94;5016392;28;20275;-76
2022/04/07 02:54:36;;;;;;;12.17;10.97;;;;;;;9.87;82.69;98780.69;5001991;28;20391;-76
2022/04/07 02:57:01;;;;;;;12.23;11.03;;;;;;;9.81;82.88;98780.75;5018430;28;20190;-76
2022/04/07 02:59:27;;;;;;;12.53;11.27;;;;;;;9.80;83.58;98777.34;5018549;28;20190;-76
2022/04/07 03:01:53;;;;;;;11.63;10.33;;;;;;;9.78;83.27;98771.41;5001176;28;20238;-78
2022/04/07 03:04:19;;;;;;;11.53;10.43;;;;;;;9.86;82.29;98761.09;4997850;28;20207;-77
2022/04/07 03:06:45;;;;;;;11.67;10.50;;;;;;;9.81;82.66;98758.56;5013713;28;20265;-76
2022/04/07 03:09:10;;;;;;;12.20;10.80;;;;;;;9.83;82.46;98763.69;5035326;28;20563;-76
2022/04/07 03:11:35;;;;;;;11.57;10.47;;;;;;;9.83;83.15;98751.75;5003683;28;20237;-76
2022/04/07 03:14:01;;;;;;;11.30;10.13;;;;;;;9.83;82.12;98750.91;4999378;28;20207;-76
2022/04/07 03:16:26;;;;;;;10.03;9.03;;;;;;;9.93;81.75;98743.09;5019534;28;20191;-76
2022/04/07 03:18:51;;;;;;;10.93;8.70;;;;;;;9.99;81.34;98737.91;4996733;28;20199;-76
2022/04/07 03:21:17;;;;;;;10.13;8.90;;;;;;;9.97;81.01;98737.09;4997142;28;20191;-76
2022/04/07 03:23:42;;;;;;;9.47;8.50;;;;;;;9.96;80.77;98717.50;5014472;28;20226;-76
2022/04/07 03:26:07;;;;;;;8.67;7.87;;;;;;;9.98;80.81;98718.31;5016556;28;20205;-76
2022/04/07 03:28:33;;;;;;;8.30;7.50;;;;;;;10.00;80.63;98718.31;5016539;28;20190;-76
2022/04/07 03:30:58;;;;;;;10.13;8.67;;;;;;;9.97;80.94;98716.66;5000007;28;20194;-76
2022/04/07 03:33:23;;;;;;;9.40;7.77;;;;;;;10.01;80.42;98709.78;5002833;28;20213;-75
2022/04/07 03:35:49;;;;;;;8.73;7.90;;;;;;;10.03;80.17;98698.66;5006632;28;20191;-75
2022/04/07 03:38:15;;;;;;;8.00;7.30;;;;;;;10.03;80.63;98698.66;5000262;28;20217;-75
2022/04/07 03:40:40;;;;;;;7.37;6.67;;;;;;;10.07;80.83;98700.34;5013037;28;20190;-75
2022/04/07 03:43:06;;;;;;;10.63;6.90;;;;;;;10.08;79.99;98696.06;4989030;28;20703;-75
2022/04/07 03:45:31;;;;;;;9.20;6.93;;;;;;;10.09;80.31;98682.44;5001693;28;20265;-76
2022/04/07 03:47:56;;;;;;;8.37;6.37;;;;;;;10.12;79.91;98685.78;5000902;28;20707;-76
2022/04/07 03:50:22;;;;;;;7.93;7.17;;;;;;;10.08;79.99;98673.03;5006020;28;20213;-75
2022/04/07 03:52:47;;;;;;;7.00;6.30;;;;;;;10.13;79.69;98676.41;5017644;28;20205;-75
2022/04/07 03:55:12;;;;;;;7.20;6.60;;;;;;;10.18;79.05;98679.75;4989275;28;20182;-77
2022/04/07 03:57:38;;;;;;;6.93;6.33;;;;;;;10.20;78.58;98667.78;5018768;28;20535;-75
2022/04/07 04:00:05;;;;;;;7.00;6.03;;;;;;;10.15;79.91;98655.06;5017980;28;20229;-76
2022/04/07 04:02:37;;;;;;;7.57;6.20;;;;;;;10.16;79.58;98666.97;5016050;28;20221;-77
2022/04/07 04:05:03;;;;;;;7.53;6.83;;;;;;;10.13;79.73;98658.50;5001227;28;20182;-76
2022/04/07 04:07:28;;;;;;;7.50;6.77;;;;;;;10.04;80.69;98654.34;5000642;28;20829;-76
2022/04/07 04:09:53;;;;;;;7.57;6.80;;;;;;;10.06;80.43;98654.34;5023732;28;20187;-76
2022/04/07 04:12:19;;;;;;;6.97;6.37;;;;;;;10.00;80.83;98654.41;5009252;28;20229;-76
2022/04/07 04:14:44;;;;;;;6.90;6.23;;;;;;;9.93;82.01;98658.75;5003932;28;20202;-76
2022/04/07 04:17:09;;;;;;;7.70;7.10;;;;;;;9.89;82.68;98648.56;4998302;28;20186;-75
2022/04/07 04:19:35;;;;;;;7.97;7.13;;;;;;;9.87;83.30;98637.53;4999628;28;20187;-76
2022/04/07 04:22:00;;;;;;;7.33;6.70;;;;;;;9.81;83.80;98635.91;4990534;28;20206;-76
2022/04/07 04:24:25;;;;;;;7.73;7.03;;;;;;;9.74;84.58;98636.00;5023239;28;20268;-76
2022/04/07 04:26:51;;;;;;;8.40;7.60;;;;;;;9.68;85.05;98644.59;4997907;28;20318;-76
2022/04/07 04:29:16;;;;;;;8.00;7.20;;;;;;;9.67;85.36;98648.00;5016101;28;20201;-76
2022/04/07 04:31:41;;;;;;;8.90;7.90;;;;;;;9.63;85.72;98635.31;4999671;28;20233;-76
2022/04/07 04:34:07;;;;;;;9.20;8.33;;;;;;;9.55;86.89;98630.28;5007892;28;20238;-76
2022/04/07 04:36:34;;;;;;;9.57;8.40;;;;;;;9.42;88.39;98627.91;5015771;28;20269;-77
2022/04/07 04:38:59;;;;;;;10.57;9.57;;;;;;;9.31;90.08;98622.91;4999617;28;20253;-77
2022/04/07 04:41:25;;;;;;;11.47;10.27;;;;;;;9.26;90.12;98616.19;5016230;28;20655;-76
2022/04/07 04:43:50;;;;;;;11.53;10.37;;;;;;;9.21;90.41;98610.28;5010020;28;20700;-76
2022/04/07 04:46:15;;;;;;;11.17;10.10;;;;;;;9.20;90.85;98614.53;4996015;28;20306;-76
2022/04/07 04:48:41;;;;;;;11.57;10.47;;;;;;;9.19;90.65;98614.53;4996711;28;20210;-76
2022/04/07 04:51:06;;;;;;;12.60;11.47;;;;;;;9.16;91.29;98601.81;4991452;28;20198;-76
2022/04/07 04:53:32;;;;;;;10.57;9.47;;;;;;;9.13;91.59;98600.13;5016439;28;20226;-76
2022/04/07 04:55:57;;;;;;;11.27;10.17;;;;;;;9.14;91.13;98598.44;5016373;28;20289;-76
2022/04/07 04:58:23;;;;;;;10.30;9.27;;;;;;;9.12;92.01;98598.44;5028634;28;20226;-76
2022/04/07 05:00:48;;;;;;;11.13;10.13;;;;;;;9.10;91.75;98582.31;5003628;28;20179;-76
2022/04/07 05:03:14;;;;;;;12.17;10.10;;;;;;;9.12;91.21;98580.56;4995561;28;20250;-78
2022/04/07 05:05:39;;;;;;;10.13;9.13;;;;;;;9.17;91.07;98586.47;5014565;28;20175;-76
2022/04/07 05:08:04;;;;;;;10.67;9.57;;;;;;;9.19;89.89;98586.47;5005674;28;20219;-76
2022/04/07 05:10:30;;;;;;;10.40;8.87;;;;;;;9.24;89.91;98587.25;4998335;28;20569;-77
2022/04/07 05:12:55;;;;;;;12.30;9.67;;;;;;;9.23;89.44;98588.97;4999769;28;20207;-76
2022/04/07 05:15:21;;;;;;;10.10;8.97;;;;;;;9.25;89.67;98573.63;5010310;28;20282;-76
2022/04/07 05:17:50;;;;;;;11.00;8.13;;;;;;;9.30;89.13;98582.09;5013064;28;20195;-77
2022/04/07 05:20:16;;;;;;;8.30;6.70;;;;;;;9.36;87.17;98556.47;5012849;28;20241;-76
2022/04/07 05:22:42;;;;;;;9.50;7.17;;;;;;;9.36;87.10;98552.19;5013813;28;20222;-77
2022/04/07 05:25:08;;;;;;;7.23;6.53;;;;;;;9.41;86.84;98560.66;5013039;28;20191;-76
2022/04/07 05:27:36;;;;;;;7.30;6.27;;;;;;;9.43;86.01;98552.94;5012159;28;20225;-77
2022/04/07 05:30:06;;;;;;;6.33;5.73;;;;;;;9.43;86.28;98551.25;5012709;28;20704;-76
2022/04/07 05:32:31;;;;;;;6.33;5.73;;;;;;;9.45;85.80;98541.84;5015196;28;20183;-76
2022/04/07 05:34:56;;;;;;;7.47;6.50;;;;;;;9.43;86.38;98537.63;5017534;28;20179;-77
2022/04/07 05:37:22;;;;;;;7.97;7.07;;;;;;;9.37;87.82;98541.13;5016073;28;20195;-76
2022/04/07 05:39:47;;;;;;;7.93;7.10;;;;;;;9.41;87.65;98552.16;4999324;28;20668;-76
2022/04/07 05:42:13;;;;;;;7.83;7.07;;;;;;;9.46;87.24;98542.72;5015028;28;20684;-76
2022/04/07 05:44:38;;;;;;;8.53;7.17;;;;;;;9.49;87.38;98546.06;5015118;28;20198;-77
2022/04/07 05:47:04;;;;;;;7.33;6.20;;;;;;;9.50;86.66;98546.91;5015163;28;20199;-76
2022/04/07 05:49:30;;;;;;;7.23;6.53;;;;;;;9.48;86.38;98538.41;4999425;28;20190;-77
2022/04/07 05:52:00;;;;;;;8.27;6.70;;;;;;;9.54;86.83;98528.13;5015158;28;20191;-76
2022/04/07 05:54:26;;;;;;;7.03;6.40;;;;;;;9.61;86.37;98517.78;5014406;28;20218;-76
2022/04/07 05:56:52;;;;;;;7.97;7.17;;;;;;;9.65;86.54;98509.22;5014934;28;20188;-76
2022/04/07 05:59:17;;;;;;;8.40;7.63;;;;;;;9.64;86.89;98497.28;5015966;28;20186;-76
2022/04/07 06:01:42;;;;;;;8.10;7.00;;;;;;;9.66;85.89;98490.47;5007176;28;20182;-76
2022/04/07 06:04:08;;;;;;;8.37;7.57;;;;;;;9.63;86.93;98484.56;4990865;28;20285;-77
2022/04/07 06:06:33;;;;;;;8.47;7.67;;;;;;;9.60;86.55;98474.38;5017852;28;20194;-76
2022/04/07 06:08:58;;;;;;;8.57;7.47;;;;;;;9.53;87.20;98471.06;5013424;28;20217;-77
2022/04/07 06:11:23;;;;;;;7.90;7.20;;;;;;;9.48;87.52;98467.75;5016541;28;20826;-76
2022/04/07 06:13:49;;;;;;;8.53;7.57;;;;;;;9.47;86.90;98458.41;5016052;28;20705;-76
2022/04/07 06:16:14;;;;;;;7.80;7.10;;;;;;;9.52;86.57;98458.31;5016865;28;20545;-76
2022/04/07 06:18:40;;;;;;;7.40;6.80;;;;;;;9.54;86.69;98457.44;5017174;28;20187;-76
2022/04/07 06:21:05;;;;;;;8.77;7.43;;;;;;;9.54;86.52;98462.53;5016079;28;20664;-76
2022/04/07 06:23:32;;;;;;;7.43;6.73;;;;;;;9.53;86.67;98454.88;4999553;28;20223;-76
2022/04/07 06:25:57;;;;;;;7.67;6.87;;;;;;;9.44;87.45;98458.44;4999958;28;20191;-76
2022/04/07 06:28:23;;;;;;;8.03;7.30;;;;;;;9.44;88.35;98452.50;5016440;28;20202;-76
2022/04/07 06:30:51;;;;;;;7.87;7.07;;;;;;;9.38;88.53;98450.88;5017709;28;20203;-76
2022/04/07 06:33:17;;;;;;;7.43;6.70;;;;;;;9.38;88.56;98442.34;5015603;28;20207;-77
2022/04/07 06:35:42;;;;;;;8.80;7.43;;;;;;;9.39;89.17;98432.13;5015168;28;20284;-76
2022/04/07 06:38:07;;;;;;;8.00;7.17;;;;;;;9.42;88.86;98429.53;4988768;28;20217;-76
2022/04/07 06:48:48;;;;;;;7.93;6.07;;;;;;;9.79;86.48;98412.75;5010187;28;20183;-76
2022/04/07 07:26:55;;;;;;;4.37;2.90;;;;;;;10.17;82.16;98279.13;4774022;30;20262;-78
2022/04/07 07:34:43;;;;;;;4.70;2.60;;;;;;;10.65;79.63;98262.72;4833787;29;20230;-78
2022/04/07 07:53:32;;;;;;;5.43;2.20;;;;;;;11.35;76.41;98186.72;4879428;29;20283;-78
2022/04/07 07:57:03;;;;;;;3.80;2.00;;;;;;;11.43;75.91;98171.94;4899194;29;20198;-78
2022/04/07 08:04:43;;;;;;;6.23;2.70;;;;;;;11.24;75.93;98141.78;4843092;29;20281;-78
2022/04/07 08:08:50;;;;;;;4.33;2.30;;;;;;;11.03;76.36;98140.63;4789225;30;20213;-78
2022/04/07 08:12:40;;;;;;;4.03;2.50;;;;;;;10.98;76.94;98136.47;4789154;30;20370;-78
2022/04/07 08:23:49;;;;;;;5.60;2.10;;;;;;;10.78;78.67;98111.38;4804558;29;20242;-78
2022/04/07 08:46:44;;;;;;;4.53;1.73;;;;;;;10.04;86.47;98079.13;4881047;29;20199;-78
2022/04/07 08:53:42;;;;;;;3.80;1.87;;;;;;;9.97;87.84;98067.34;4860995;29;20226;-76
2022/04/07 08:56:10;;;;;;;3.40;2.13;;;;;;;9.88;88.92;98057.34;4910185;28;20203;-78
2022/04/07 08:58:36;;;;;;;3.83;1.40;;;;;;;9.89;88.91;98074.34;4978104;28;20740;-77
2022/04/07 09:01:03;;;;;;;4.13;1.53;;;;;;;9.87;89.28;98055.63;4977859;28;20185;-77
2022/04/07 09:03:30;;;;;;;4.07;1.80;;;;;;;9.82;89.46;98037.00;4978907;28;20224;-78
2022/04/07 09:06:29;;;;;;;2.50;1.37;;;;;;;9.81;90.38;98037.88;4984906;28;20195;-76
2022/04/07 09:08:54;;;;;;;3.50;1.37;;;;;;;9.78;89.70;98045.66;5002571;28;20307;-76
2022/04/07 09:11:21;;;;;;;3.60;1.40;;;;;;;9.77;90.73;98041.38;5005369;28;21603;-76
2022/04/07 09:13:47;;;;;;;6.70;1.60;;;;;;;9.75;91.10;98032.06;4998680;28;20235;-76
2022/04/07 09:16:14;;;;;;;4.43;1.73;;;;;;;9.65;91.97;98017.84;5006582;28;20206;-78
2022/04/07 09:18:45;;;;;;;3.07;1.57;;;;;;;9.69;92.00;98002.41;5002838;28;20217;-76
2022/04/07 09:21:25;;;;;;;3.90;1.50;;;;;;;9.67;92.51;98004.16;5005087;28;20195;-76
2022/04/07 09:23:57;;;;;;;2.67;1.60;;;;;;;9.65;92.88;98011.03;5003405;28;20699;-76
2022/04/07 09:26:23;;;;;;;2.43;1.50;;;;;;;9.56;94.79;98052.09;4997601;28;20195;-78
2022/04/07 09:28:50;;;;;;;4.60;1.33;;;;;;;8.03;98.34;98103.41;4996318;28;20336;-77
2022/04/07 09:31:16;;;;;;;1.93;0.90;;;;;;;7.45;100.00;98132.22;5014793;28;20559;-78
2022/04/07 09:33:42;;;;;;;1.67;0.53;;;;;;;7.21;100.00;98146.09;4997658;28;20222;-79
2022/04/07 09:36:19;;;;;;;1.63;0.50;;;;;;;7.14;100.00;98141.91;5019435;28;20294;-79
2022/04/07 09:38:48;;;;;;;1.57;0.70;;;;;;;7.12;100.00;98133.47;5001212;28;20198;-79
2022/04/07 09:41:14;;;;;;;1.33;0.80;;;;;;;7.26;100.00;98146.88;4999502;28;20723;-78
2022/04/07 09:43:44;;;;;;;0.73;0.57;;;;;;;7.06;100.00;98135.22;4999510;28;20223;-77
2022/04/07 09:46:12;;;;;;;1.97;0.60;;;;;;;6.98;100.00;98127.69;4997005;28;20188;-77
2022/04/07 09:48:38;;;;;;;2.00;1.17;;;;;;;7.00;100.00;98115.78;5018371;28;20249;-78
2022/04/07 09:51:08;;;;;;;2.20;1.00;;;;;;;6.97;100.00;98127.69;5020878;28;20219;-76
2022/04/07 09:53:37;;;;;;;1.43;0.53;;;;;;;6.75;100.00;98132.16;4996440;28;20233;-78
2022/04/07 09:56:03;;;;;;;1.70;0.63;;;;;;;6.79;100.00;98127.88;5012300;28;20202;-77
2022/04/07 09:58:30;;;;;;;4.37;0.90;;;;;;;6.97;100.00;98126.00;5024746;28;20249;-78
2022/04/07 10:00:56;;;;;;;2.60;0.70;;;;;;;7.11;100.00;98124.16;4997172;28;20270;-75
2022/04/07 10:03:22;;;;;;;2.03;0.80;;;;;;;6.93;100.00;98131.97;5005970;28;20310;-76
2022/04/07 10:05:49;;;;;;;1.13;0.77;;;;;;;6.82;100.00;98122.75;4979099;28;20242;-75
2022/04/07 10:08:16;;;;;;;2.43;1.30;;;;;;;6.79;100.00;98128.72;4992437;28;20206;-76
2022/04/07 10:10:42;;;;;;;1.67;0.70;;;;;;;6.83;100.00;98115.13;4997955;28;20258;-78
2022/04/07 10:13:08;;;;;;;1.07;0.80;;;;;;;6.77;100.00;98106.72;4993366;28;20207;-78
2022/04/07 10:15:35;;;;;;;2.63;0.80;;;;;;;6.79;100.00;98102.44;4977012;28;20200;-76
2022/04/07 10:18:05;;;;;;;2.13;0.77;;;;;;;6.79;100.00;98110.06;4973750;28;20206;-77
2022/04/07 10:20:34;;;;;;;1.20;0.70;;;;;;;6.75;100.00;98106.72;4991143;28;20748;-77
2022/04/07 10:23:24;;;;;;;3.17;0.80;;;;;;;6.72;100.00;98118.63;4990890;28;20219;-77
2022/04/07 10:25:49;;;;;;;2.10;0.80;;;;;;;6.39;100.00;98124.00;4977652;28;20564;-77
2022/04/07 10:28:16;;;;;;;1.63;0.70;;;;;;;6.57;100.00;98104.34;4995418;28;20191;-78
2022/04/07 10:30:52;;;;;;;2.07;0.70;;;;;;;6.59;100.00;98089.09;4995180;28;20230;-78
2022/04/07 10:33:46;;;;;;;2.00;1.00;;;;;;;6.62;100.00;98094.97;4976324;28;20709;-79
2022/04/07 10:36:16;;;;;;;1.17;0.80;;;;;;;6.47;100.00;98091.75;4975993;28;20199;-77
2022/04/07 10:38:45;;;;;;;0.70;0.70;;;;;;;6.18;99.75;98098.78;4976465;28;20183;-77
2022/04/07 10:41:10;;;;;;;1.30;0.53;;;;;;;6.17;100.00;98099.63;4978121;28;20271;-79
2022/04/07 10:43:40;;;;;;;1.83;0.80;;;;;;;6.10;100.00;98100.53;4976748;28;20318;-78
2022/04/07 10:46:18;;;;;;;1.73;0.73;;;;;;;6.03;99.39;98103.97;4977847;28;20255;-77
2022/04/07 10:48:45;;;;;;;2.17;0.90;;;;;;;6.05;98.80;98108.19;4961443;28;20219;-77
2022/04/07 10:51:11;;;;;;;2.43;0.87;;;;;;;5.94;98.27;98101.50;4976521;28;20215;-77
2022/04/07 10:54:02;;;;;;;2.10;0.70;;;;;;;5.95;98.21;98098.91;4977920;28;20250;-77
2022/04/07 10:56:32;;;;;;;2.30;0.57;;;;;;;5.74;97.63;98095.66;4980004;28;20191;-77
2022/04/07 10:59:18;;;;;;;1.00;0.90;;;;;;;5.81;97.27;98085.47;4980481;28;20192;-80
2022/04/07 11:01:44;;;;;;;2.20;0.77;;;;;;;5.84;97.55;98087.19;4978843;28;20184;-77
2022/04/07 11:04:16;;;;;;;1.70;0.90;;;;;;;5.91;97.70;98092.22;4995239;28;20719;-76
2022/04/07 11:07:20;;;;;;;1.60;1.00;;;;;;;5.98;97.65;98083.69;4996022;28;20618;-78
2022/04/07 11:09:49;;;;;;;3.00;1.10;;;;;;;5.93;97.33;98089.63;4998097;28;20187;-78
2022/04/07 11:12:34;;;;;;;1.23;1.03;;;;;;;5.91;97.32;98076.97;4981674;28;20187;-78
2022/04/07 11:15:02;;;;;;;1.43;1.00;;;;;;;5.77;96.78;98072.81;4999854;28;20793;-78
2022/04/07 11:17:32;;;;;;;1.43;1.17;;;;;;;5.83;96.93;98058.41;4992344;28;20631;-78
2022/04/07 11:20:18;;;;;;;1.60;1.00;;;;;;;5.81;96.75;98056.72;4992660;28;20186;-76
2022/04/07 11:23:07;;;;;;;1.80;0.90;;;;;;;5.75;96.74;98042.34;4975827;28;20688;-79
2022/04/07 11:25:40;;;;;;;1.20;1.10;;;;;;;5.72;96.40;97983.16;4992399;28;20176;-76
2022/04/07 11:28:17;;;;;;;3.67;1.00;;;;;;;5.83;95.63;97966.16;4974528;28;20283;-76
2022/04/07 11:30:54;;;;;;;1.87;0.87;;;;;;;5.95;95.69;97973.69;4973369;28;20590;-77
2022/04/07 11:33:28;;;;;;;1.20;0.90;;;;;;;5.89;95.02;97973.75;4991786;28;20289;-77
2022/04/07 11:36:00;;;;;;;1.03;0.77;;;;;;;6.39;94.22;97979.16;4974206;28;20190;-77
2022/04/07 11:38:31;;;;;;;1.63;0.70;;;;;;;6.71;92.49;97985.56;4973637;28;20203;-76
2022/04/07 11:41:01;;;;;;;1.20;0.70;;;;;;;7.38;89.04;97971.09;4991064;28;20188;-76
2022/04/07 11:43:26;;;;;;;2.03;0.70;;;;;;;7.91;87.06;97966.03;4991711;28;20845;-78
2022/04/07 11:45:55;;;;;;;0.73;0.53;;;;;;;8.20;85.22;97965.53;4957280;28;20322;-75
2022/04/07 11:48:21;;;;;;;0.50;0.47;;;;;;;8.60;85.25;97969.03;4989305;28;20188;-75
2022/04/07 11:50:47;;;;;;;0.67;0.50;;;;;;;8.94;83.30;97954.75;4990362;28;20672;-75
2022/04/07 11:53:12;;;;;;;0.90;0.60;;;;;;;9.10;84.69;97953.53;4990497;28;20208;-75
2022/04/07 11:55:38;;;;;;;0.60;0.40;;;;;;;8.92;82.40;97949.66;4973256;28;20195;-77
2022/04/07 11:58:03;;;;;;;1.20;0.53;;;;;;;9.16;82.87;97936.38;4990632;28;20226;-76
2022/04/07 12:00:32;;;;;;;2.87;0.70;;;;;;;9.00;81.65;97954.59;4969919;28;20207;-74
2022/04/07 12:03:01;;;;;;;0.63;0.53;;;;;;;9.16;80.11;97944.03;4970738;28;20224;-76
2022/04/07 12:05:27;;;;;;;1.87;0.70;;;;;;;9.69;81.49;97961.53;4969564;28;20206;-75
2022/04/07 12:07:53;;;;;;;1.57;0.70;;;;;;;9.70;77.11;97954.69;4962380;28;20239;-75
2022/04/07 12:10:19;;;;;;;1.33;0.60;;;;;;;10.51;77.56;97945.78;4985827;28;20236;-76
2022/04/07 12:12:45;;;;;;;3.30;0.80;;;;;;;10.77;75.43;97961.28;4970808;28;20270;-76
2022/04/07 12:15:11;;;;;;;3.77;0.70;;;;;;;11.25;73.03;97956.47;4985658;28;20216;-76
2022/04/07 12:18:04;;;;;;;3.53;0.87;;;;;;;11.19;74.57;97929.31;4990423;28;20648;-76
2022/04/07 12:20:30;;;;;;;3.97;0.90;;;;;;;10.06;73.77;97946.16;4990090;28;20230;-75
2022/04/07 12:23:13;;;;;;;1.93;0.80;;;;;;;10.03;74.20;97943.66;4988168;28;20223;-76
2022/04/07 12:25:41;;;;;;;1.30;0.80;;;;;;;9.91;73.95;97938.84;4990042;28;20199;-75
2022/04/07 12:28:18;;;;;;;1.50;0.80;;;;;;;10.81;72.24;97931.31;4988361;28;20290;-75
2022/04/07 12:30:51;;;;;;;3.67;1.13;;;;;;;11.73;70.86;97916.50;4989940;28;20187;-76
2022/04/07 12:33:42;;;;;;;2.83;0.70;;;;;;;11.80;69.92;97913.69;4990122;28;20358;-76
2022/04/07 12:36:13;;;;;;;2.83;0.90;;;;;;;11.93;68.47;97927.78;4988772;28;20270;-76
2022/04/07 12:38:40;;;;;;;3.53;1.00;;;;;;;11.05;70.51;97944.25;4978541;28;20217;-76
2022/04/07 12:41:11;;;;;;;3.37;0.90;;;;;;;10.51;73.64;97950.91;4972543;28;20173;-75
2022/04/07 12:43:52;;;;;;;2.23;0.80;;;;;;;10.38;73.93;97938.50;4973965;28;20220;-76
2022/04/07 12:46:19;;;;;;;2.20;0.77;;;;;;;10.19;74.63;97939.88;4974160;28;20271;-76
2022/04/07 12:49:05;;;;;;;3.73;0.93;;;;;;;11.54;73.58;97915.41;4999490;28;20191;-76
2022/04/07 12:51:37;;;;;;;2.47;1.20;;;;;;;11.48;67.75;97908.72;4973773;28;20195;-77
2022/04/07 12:54:13;;;;;;;3.17;0.83;;;;;;;11.77;67.79;97911.25;4976305;28;20208;-77
2022/04/07 12:56:40;;;;;;;4.07;1.00;;;;;;;12.10;66.21;97920.38;4989647;28;20272;-77
2022/04/07 12:59:09;;;;;;;2.63;1.20;;;;;;;11.89;67.98;97904.88;4989479;28;20248;-74
2022/04/07 13:01:35;;;;;;;2.23;0.93;;;;;;;12.76;66.25;97894.09;4988312;28;20210;-77
2022/04/07 13:04:04;;;;;;;1.97;0.90;;;;;;;12.39;67.74;97917.66;4994102;28;20235;-77
2022/04/07 13:06:30;;;;;;;1.73;0.80;;;;;;;11.27;67.74;97923.94;4993105;28;20191;-76
2022/04/07 13:08:56;;;;;;;2.87;1.10;;;;;;;10.86;69.13;97932.84;5019760;28;20233;-76
2022/04/07 13:11:32;;;;;;;3.23;1.10;;;;;;;10.72;67.88;97927.28;5033121;28;20724;-77
2022/04/07 13:13:58;;;;;;;3.40;1.03;;;;;;;11.63;67.71;97903.19;5032640;28;20202;-76
2022/04/07 13:16:24;;;;;;;2.50;1.00;;;;;;;11.40;68.03;97892.78;5031451;28;20301;-76
2022/04/07 13:18:49;;;;;;;3.80;1.10;;;;;;;11.90;65.11;97894.56;5031456;28;20313;-76
2022/04/07 13:21:15;;;;;;;1.87;0.90;;;;;;;11.65;66.56;97885.16;5015676;28;20171;-77
2022/04/07 13:23:40;;;;;;;2.17;0.80;;;;;;;11.59;66.18;97878.53;5032973;28;20226;-77
2022/04/07 13:26:06;;;;;;;3.43;0.97;;;;;;;12.43;64.81;97875.59;5015914;28;20257;-77
2022/04/07 13:28:31;;;;;;;3.53;1.17;;;;;;;11.86;67.40;97879.34;5012517;28;20199;-77